Time;durP1;ratioP1;P1;durP2;ratioP2;P2;SDS_P1;SDS_P2;PMS_P1;PMS_P2;Temp;Humidity;BMP_temperature;BMP_pressure;BME280_temperature;BME280_humidity;BME280_pressure;Samples;Min_cycle;Max_cycle;Signal;HPM_P1;HPM_P2
2023/02/07 00:00:16;;;;;;;25.08;7.35;;;;;;;-0.94;100.00;102751.97;4992659;28;20484;-94
2023/02/07 00:02:43;;;;;;;29.90;8.05;;;;;;;-1.03;100.00;102772.84;4993272;28;20041;-95
2023/02/07 00:05:08;;;;;;;22.67;7.13;;;;;;;-1.16;100.00;102766.59;4993395;28;20069;-93
2023/02/07 00:07:34;;;;;;;24.05;6.80;;;;;;;-1.35;100.00;102757.59;4993687;28;20034;-94
2023/02/07 00:09:59;;;;;;;20.90;6.15;;;;;;;-1.44;100.00;102771.66;4993338;28;20023;-94
2023/02/07 00:12:25;;;;;;;26.33;7.95;;;;;;;-1.46;100.00;102755.56;4993326;28;20113;-94
2023/02/07 00:14:50;;;;;;;28.27;6.75;;;;;;;-1.39;100.00;102778.59;4993349;28;20435;-94
2023/02/07 00:17:16;;;;;;;24.35;6.75;;;;;;;-1.53;100.00;102779.84;4989215;28;20030;-92
2023/02/07 00:19:41;;;;;;;15.32;5.03;;;;;;;-1.59;100.00;102775.44;4973806;28;20552;-93
2023/02/07 00:22:07;;;;;;;31.80;7.57;;;;;;;-1.70;100.00;102761.63;4973656;28;20114;-95
2023/02/07 00:24:32;;;;;;;24.60;5.30;;;;;;;-1.70;100.00;102781.03;4973490;28;20027;-94
2023/02/07 00:26:58;;;;;;;21.60;5.20;;;;;;;-1.79;100.00;102781.59;4973820;28;20421;-95
2023/02/07 00:29:23;;;;;;;28.15;6.55;;;;;;;-1.80;100.00;102780.72;4973533;28;20039;-94
2023/02/07 00:31:49;;;;;;;36.13;8.85;;;;;;;-1.51;100.00;102798.50;4987875;28;20033;-94
2023/02/07 00:34:15;;;;;;;34.38;7.32;;;;;;;-1.78;100.00;102788.34;4995616;28;20058;-94
2023/02/07 00:36:41;;;;;;;28.48;7.22;;;;;;;-1.92;100.00;102800.59;4993769;28;20026;-93
2023/02/07 00:39:14;;;;;;;36.42;7.15;;;;;;;-1.96;100.00;102793.69;4992726;28;20491;-93
2023/02/07 00:41:40;;;;;;;24.05;6.72;;;;;;;-1.92;100.00;102789.63;4992939;28;20098;-94
2023/02/07 00:44:06;;;;;;;21.48;5.80;;;;;;;-1.98;100.00;102787.72;5009081;28;20037;-93
2023/02/07 00:46:33;;;;;;;35.28;6.00;;;;;;;-2.05;100.00;102785.81;5006921;28;20039;-93
2023/02/07 00:48:58;;;;;;;20.10;5.18;;;;;;;-2.06;100.00;102784.09;4992727;28;20493;-94
2023/02/07 00:51:24;;;;;;;23.20;5.93;;;;;;;-2.13;100.00;102772.06;4992454;28;20033;-93
2023/02/07 00:53:53;;;;;;;18.13;5.82;;;;;;;-2.13;100.00;102782.19;4992565;28;20484;-94
2023/02/07 00:56:19;;;;;;;27.27;6.47;;;;;;;-2.24;100.00;102774.25;4992420;28;20030;-93
2023/02/07 00:58:45;;;;;;;16.80;5.40;;;;;;;-2.24;100.00;102775.09;4992293;28;20026;-93
2023/02/07 01:01:11;;;;;;;27.75;6.57;;;;;;;-2.20;100.00;102778.56;4988868;28;20491;-94
2023/02/07 01:03:37;;;;;;;28.17;6.97;;;;;;;-2.23;100.00;102765.84;4992170;28;20036;-93
2023/02/07 01:06:02;;;;;;;38.20;7.90;;;;;;;-2.23;100.00;102781.00;4992355;28;20026;-94
2023/02/07 01:08:28;;;;;;;40.50;8.75;;;;;;;-2.01;100.00;102780.91;4992180;28;20030;-94
2023/02/07 01:10:54;;;;;;;31.60;8.00;;;;;;;-2.07;100.00;102774.78;4992290;28;20066;-93
2023/02/07 01:13:19;;;;;;;27.80;6.80;;;;;;;-2.08;100.00;102780.66;4992171;28;20030;-94
2023/02/07 01:15:47;;;;;;;40.03;8.30;;;;;;;-2.13;100.00;102774.59;4991453;28;20030;-94
2023/02/07 01:18:12;;;;;;;43.53;8.60;;;;;;;-2.13;100.00;102787.25;4988939;28;20027;-92
2023/02/07 01:20:38;;;;;;;34.50;8.20;;;;;;;-2.08;100.00;102780.66;4972545;28;20033;-94
2023/02/07 01:23:05;;;;;;;22.42;8.20;;;;;;;-2.02;100.00;102780.88;4972708;28;20370;-93
2023/02/07 01:25:31;;;;;;;26.33;7.68;;;;;;;-2.05;100.00;102780.75;4972736;28;20031;-93
2023/02/07 01:27:56;;;;;;;34.67;8.60;;;;;;;-2.02;100.00;102779.19;4973794;28;20054;-92
2023/02/07 01:30:22;;;;;;;44.00;11.57;;;;;;;-2.06;100.00;102769.78;4974475;28;20429;-94
2023/02/07 01:32:48;;;;;;;29.23;7.45;;;;;;;-2.02;100.00;102774.13;4993573;28;20030;-93
2023/02/07 01:35:14;;;;;;;29.90;7.97;;;;;;;-2.02;100.00;102773.28;5007827;28;20034;-93
2023/02/07 01:37:39;;;;;;;28.70;7.25;;;;;;;-2.10;100.00;102762.03;5007725;28;20631;-93
2023/02/07 01:40:05;;;;;;;35.67;8.02;;;;;;;-2.13;100.00;102767.00;4991596;28;20034;-94
2023/02/07 01:42:31;;;;;;;39.20;7.57;;;;;;;-2.17;100.00;102754.25;4993054;28;20022;-94
2023/02/07 01:45:01;;;;;;;20.00;7.57;;;;;;;-1.92;100.00;102762.63;4991162;28;20036;-93
2023/02/07 01:47:28;;;;;;;33.88;9.65;;;;;;;-1.99;100.00;102751.44;4987413;28;20096;-93
2023/02/07 01:49:55;;;;;;;34.20;8.40;;;;;;;-1.90;100.00;102758.47;4972323;28;20058;-94
2023/02/07 01:52:28;;;;;;;39.95;9.90;;;;;;;-1.89;100.00;102751.75;4972275;28;20492;-93
2023/02/07 01:54:58;;;;;;;41.00;9.00;;;;;;;-1.68;100.00;102764.19;4972005;28;20038;-93
2023/02/07 01:57:24;;;;;;;37.55;8.13;;;;;;;-1.86;100.00;102750.16;4972329;28;20031;-94
2023/02/07 01:59:54;;;;;;;45.65;10.10;;;;;;;-1.85;100.00;102759.47;4972884;28;20022;-94
2023/02/07 02:02:22;;;;;;;25.35;9.57;;;;;;;-1.84;100.00;102761.19;4991250;28;20053;-93
2023/02/07 02:04:51;;;;;;;45.95;11.43;;;;;;;-1.81;100.00;102752.81;4991528;28;20031;-94
2023/02/07 02:07:17;;;;;;;34.10;9.65;;;;;;;-2.04;100.00;102755.50;4991616;28;20022;-92
2023/02/07 02:09:42;;;;;;;26.38;9.52;;;;;;;-2.14;100.00;102748.44;4992713;28;20384;-94
2023/02/07 02:12:37;;;;;;;26.27;10.55;;;;;;;-2.37;100.00;102745.13;4991776;28;20042;-93
2023/02/07 02:15:09;;;;;;;51.70;11.93;;;;;;;-2.39;100.00;102752.69;4987865;28;20118;-93
2023/02/07 02:18:16;;;;;;;37.35;10.55;;;;;;;-2.43;100.00;102755.06;4991216;28;20022;-93
2023/02/07 02:20:58;;;;;;;25.38;9.65;;;;;;;-2.56;100.00;102747.84;4968971;28;20026;-93
2023/02/07 02:23:51;;;;;;;25.85;10.38;;;;;;;-2.51;100.00;102746.34;4991496;28;20069;-94
2023/02/07 02:26:45;;;;;;;40.97;11.25;;;;;;;-2.54;100.00;102743.72;4991503;28;20030;-94
2023/02/07 02:29:29;;;;;;;33.58;10.85;;;;;;;-2.58;100.00;102741.09;4991515;28;20034;-94
2023/02/07 02:31:57;;;;;;;26.98;9.68;;;;;;;-2.65;100.00;102735.78;4987489;28;20037;-93
2023/02/07 02:34:50;;;;;;;31.40;8.85;;;;;;;-2.77;100.00;102727.78;4991398;28;20034;-92
2023/02/07 02:37:27;;;;;;;25.92;8.15;;;;;;;-2.77;100.00;102731.16;4977718;28;20034;-92
2023/02/07 02:40:05;;;;;;;35.15;10.05;;;;;;;-2.95;100.00;102712.81;4991459;28;20034;-93
2023/02/07 02:43:05;;;;;;;22.67;7.68;;;;;;;-2.88;100.00;102730.81;4991423;28;20034;-93
2023/02/07 02:45:39;;;;;;;33.75;9.20;;;;;;;-2.96;100.00;102726.28;4936409;28;20030;-93
2023/02/07 02:48:09;;;;;;;36.50;9.68;;;;;;;-3.04;100.00;102724.34;4990566;28;20551;-94
2023/02/07 02:50:35;;;;;;;25.42;8.50;;;;;;;-2.98;100.00;102738.84;4994142;28;20503;-94
2023/02/07 02:53:00;;;;;;;36.53;9.88;;;;;;;-2.96;100.00;102736.38;4994683;28;20128;-94
2023/02/07 02:55:50;;;;;;;32.78;10.18;;;;;;;-2.95;100.00;102738.09;4994717;28;20076;-92
2023/02/07 02:58:34;;;;;;;46.00;11.52;;;;;;;-2.96;100.00;102742.28;4994539;28;20089;-93
2023/02/07 03:01:34;;;;;;;51.65;12.73;;;;;;;-3.03;100.00;102737.81;4990926;28;20030;-93
2023/02/07 03:04:21;;;;;;;35.88;10.88;;;;;;;-2.89;100.00;102733.28;4992590;28;20117;-93
2023/02/07 03:07:05;;;;;;;31.10;9.30;;;;;;;-2.99;100.00;102728.72;4994691;28;20026;-93
2023/02/07 03:09:58;;;;;;;37.72;10.07;;;;;;;-2.95;100.00;102733.03;4994501;28;20064;-93
2023/02/07 03:12:40;;;;;;;36.85;9.68;;;;;;;-3.07;100.00;102719.19;4994356;28;20062;-93
2023/02/07 03:15:26;;;;;;;32.78;8.25;;;;;;;-3.06;100.00;102731.00;4994207;28;20049;-94
2023/02/07 03:18:07;;;;;;;25.45;8.80;;;;;;;-2.94;100.00;102734.78;4994340;28;20065;-93
2023/02/07 03:20:37;;;;;;;26.15;7.13;;;;;;;-3.12;100.00;102730.81;4994704;28;20038;-94
2023/02/07 03:23:05;;;;;;;17.98;6.60;;;;;;;-3.31;100.00;102708.22;4992230;28;20027;-92
2023/02/07 03:25:31;;;;;;;36.05;8.32;;;;;;;-3.26;100.00;102734.50;4994146;28;20502;-93
2023/02/07 03:27:58;;;;;;;26.58;7.45;;;;;;;-3.31;100.00;102733.47;4994250;28;20030;-93
2023/02/07 03:30:29;;;;;;;29.65;7.38;;;;;;;-3.40;100.00;102733.97;4995232;28;20019;-93
2023/02/07 03:33:00;;;;;;;19.10;6.97;;;;;;;-3.19;100.00;102733.91;4994021;28;20425;-93
2023/02/07 03:35:31;;;;;;;37.00;7.32;;;;;;;-3.07;100.00;102744.44;4994127;28;20126;-94
2023/02/07 03:38:02;;;;;;;32.93;6.77;;;;;;;-3.06;100.00;102746.16;4988102;28;20028;-94
2023/02/07 03:40:34;;;;;;;30.98;8.43;;;;;;;-2.89;100.00;102740.84;4988051;28;20473;-93
2023/02/07 03:43:12;;;;;;;40.15;7.72;;;;;;;-2.98;100.00;102745.56;4990540;28;20035;-93
2023/02/07 03:45:38;;;;;;;28.55;6.68;;;;;;;-2.89;100.00;102750.97;4974512;28;20093;-93
2023/02/07 03:48:03;;;;;;;26.02;6.18;;;;;;;-2.88;100.00;102745.09;4974368;28;20027;-93
2023/02/07 03:50:29;;;;;;;17.65;4.93;;;;;;;-2.92;100.00;102723.06;4974354;28;20489;-93
2023/02/07 03:52:54;;;;;;;23.92;5.93;;;;;;;-2.91;100.00;102739.94;4974291;28;20085;-93
2023/02/07 03:55:20;;;;;;;13.38;5.53;;;;;;;-3.01;100.00;102728.63;4974087;28;20042;-94
2023/02/07 03:57:45;;;;;;;20.70;5.57;;;;;;;-2.90;100.00;102736.59;5009343;28;20121;-93
2023/02/07 04:00:13;;;;;;;21.50;5.15;;;;;;;-2.87;100.00;102736.72;4993194;28;20030;-93
2023/02/07 04:02:39;;;;;;;39.75;5.75;;;;;;;-2.59;100.00;102735.97;4984351;28;20046;-93
2023/02/07 04:05:05;;;;;;;24.05;4.85;;;;;;;-2.47;100.00;102743.13;4974221;28;20030;-94
2023/02/07 04:07:30;;;;;;;15.45;4.28;;;;;;;-2.52;100.00;102729.47;4975347;28;20027;-93
2023/02/07 04:09:56;;;;;;;23.75;4.90;;;;;;;-2.60;100.00;102737.66;4973928;28;20038;-94
2023/02/07 04:12:22;;;;;;;17.98;3.92;;;;;;;-2.64;100.00;102735.81;4973921;28;20041;-94
2023/02/07 04:14:47;;;;;;;26.00;4.90;;;;;;;-2.63;100.00;102734.19;4973840;28;20088;-94
2023/02/07 04:17:13;;;;;;;24.45;6.45;;;;;;;-2.76;100.00;102729.50;4978992;28;20480;-93
2023/02/07 04:19:38;;;;;;;17.27;5.13;;;;;;;-2.88;100.00;102720.69;4993287;28;20031;-93
2023/02/07 04:22:04;;;;;;;29.98;6.35;;;;;;;-2.88;100.00;102735.88;4993347;28;20029;-95
2023/02/07 04:24:31;;;;;;;24.70;5.78;;;;;;;-3.03;100.00;102726.06;4993065;28;20124;-94
2023/02/07 04:26:57;;;;;;;24.20;5.60;;;;;;;-3.05;100.00;102747.91;4993295;28;20023;-93
2023/02/07 04:29:23;;;;;;;23.08;5.55;;;;;;;-3.09;100.00;102750.25;4993212;28;20026;-94
2023/02/07 04:31:48;;;;;;;27.08;7.13;;;;;;;-3.02;100.00;102760.63;4992258;28;20022;-94
2023/02/07 04:34:14;;;;;;;23.25;7.57;;;;;;;-3.06;100.00;102741.09;4992987;28;20038;-93
2023/02/07 04:36:39;;;;;;;46.10;14.13;;;;;;;-3.10;100.00;102746.84;4993177;28;20027;-93
2023/02/07 04:39:05;;;;;;;37.75;13.95;;;;;;;-3.15;100.00;102738.25;4993047;28;20109;-94
2023/02/07 04:41:30;;;;;;;55.65;17.98;;;;;;;-3.34;100.00;102743.44;4992982;28;20122;-94
2023/02/07 04:43:56;;;;;;;28.38;14.63;;;;;;;-3.43;100.00;102733.88;4994064;28;20425;-93
2023/02/07 04:46:21;;;;;;;34.28;12.07;;;;;;;-3.26;100.00;102754.69;4993088;28;20428;-93
2023/02/07 04:48:47;;;;;;;33.38;10.27;;;;;;;-3.38;100.00;102761.81;4989075;28;20477;-93
2023/02/07 04:51:14;;;;;;;36.05;12.02;;;;;;;-3.56;100.00;102772.94;4992687;28;20124;-94
2023/02/07 04:53:39;;;;;;;35.00;13.50;;;;;;;-3.58;100.00;102776.22;4992797;28;20026;-94
2023/02/07 04:56:05;;;;;;;45.30;13.13;;;;;;;-3.79;100.00;102748.47;4992832;28;20023;-95
2023/02/07 04:58:31;;;;;;;42.75;14.25;;;;;;;-3.82;100.00;102756.78;4992890;28;20539;-94
2023/02/07 05:00:56;;;;;;;35.83;14.00;;;;;;;-3.83;100.00;102755.03;4992637;28;20226;-93
2023/02/07 05:03:22;;;;;;;28.35;12.20;;;;;;;-3.79;100.00;102773.72;4987928;28;20468;-95
2023/02/07 05:05:47;;;;;;;35.17;12.25;;;;;;;-3.73;100.00;102773.94;4992755;28;20121;-94
2023/02/07 05:08:13;;;;;;;37.88;11.32;;;;;;;-3.81;100.00;102755.97;4993817;28;20337;-95
2023/02/07 05:10:39;;;;;;;38.55;12.02;;;;;;;-3.85;100.00;102759.19;4992708;28;20035;-93
2023/02/07 05:13:05;;;;;;;33.63;11.00;;;;;;;-3.77;100.00;102749.41;4991645;28;20026;-96
2023/02/07 05:15:31;;;;;;;29.13;11.50;;;;;;;-3.82;100.00;102759.31;4992411;28;20044;-94
2023/02/07 05:17:56;;;;;;;29.90;12.30;;;;;;;-3.83;100.00;102759.25;4988776;28;20022;-94
2023/02/07 05:20:23;;;;;;;24.85;9.43;;;;;;;-3.77;100.00;102772.09;4992419;28;20141;-94
2023/02/07 05:22:49;;;;;;;34.58;10.80;;;;;;;-3.83;100.00;102774.38;4992435;28;20492;-93
2023/02/07 05:25:14;;;;;;;38.03;9.27;;;;;;;-3.81;100.00;102776.16;4993623;28;20088;-94
2023/02/07 05:27:40;;;;;;;43.17;8.82;;;;;;;-3.79;100.00;102769.50;4992443;28;20034;-94
2023/02/07 05:30:07;;;;;;;23.77;8.25;;;;;;;-3.72;100.00;102775.66;4992525;28;20092;-94
2023/02/07 05:35:16;;;;;;;37.00;8.88;;;;;;;-3.82;100.00;102771.94;4993090;28;20084;-94
2023/02/07 05:37:42;;;;;;;35.15;8.32;;;;;;;-3.65;100.00;102765.00;4992220;28;20034;-93
2023/02/07 05:40:09;;;;;;;21.33;7.22;;;;;;;-3.54;100.00;102768.78;4992245;28;20029;-94
2023/02/07 05:42:34;;;;;;;32.55;7.25;;;;;;;-3.60;100.00;102765.19;4992197;28;20400;-94
2023/02/07 05:45:00;;;;;;;24.33;7.60;;;;;;;-3.66;100.00;102758.22;4986013;28;20030;-94
2023/02/07 05:47:26;;;;;;;33.03;7.22;;;;;;;-3.45;100.00;102770.81;4972691;28;20031;-94
2023/02/07 05:49:51;;;;;;;30.67;8.32;;;;;;;-3.69;100.00;102765.69;4972643;28;20034;-95
2023/02/07 05:52:17;;;;;;;20.40;7.45;;;;;;;-3.79;100.00;102761.09;4972871;28;20118;-95
2023/02/07 05:54:42;;;;;;;31.58;8.40;;;;;;;-3.98;100.00;102742.69;4972363;28;20110;-94
2023/02/07 05:57:08;;;;;;;30.73;8.63;;;;;;;-3.93;100.00;102751.31;4972712;28;20030;-93
2023/02/07 05:59:33;;;;;;;22.52;6.38;;;;;;;-3.92;100.00;102758.09;4976842;28;20034;-93
2023/02/07 06:01:59;;;;;;;43.78;8.05;;;;;;;-3.74;100.00;102757.06;4991739;28;20084;-94
2023/02/07 06:04:24;;;;;;;19.10;6.57;;;;;;;-3.62;100.00;102765.13;5008240;28;20133;-94
2023/02/07 06:06:50;;;;;;;28.40;7.00;;;;;;;-3.74;100.00;102757.06;4991855;28;20397;-93
2023/02/07 06:09:16;;;;;;;33.97;8.40;;;;;;;-3.81;100.00;102745.03;4991597;28;20034;-93
2023/02/07 06:11:41;;;;;;;34.15;6.97;;;;;;;-3.64;100.00;102761.66;4991890;28;20173;-93
2023/02/07 06:14:07;;;;;;;33.88;8.18;;;;;;;-3.58;100.00;102766.97;4990199;28;20026;-94
2023/02/07 06:16:32;;;;;;;36.13;9.32;;;;;;;-3.58;100.00;102761.06;4988529;28;20035;-94
2023/02/07 06:18:58;;;;;;;30.00;8.18;;;;;;;-3.69;100.00;102763.16;4972142;28;20073;-94
2023/02/07 06:21:23;;;;;;;24.13;8.48;;;;;;;-3.78;100.00;102767.84;4972170;28;20026;-94
2023/02/07 06:23:50;;;;;;;26.50;9.27;;;;;;;-3.85;100.00;102779.38;4973999;28;20019;-95
2023/02/07 06:26:16;;;;;;;43.15;12.23;;;;;;;-3.73;100.00;102789.06;4994291;28;20061;-94
2023/02/07 06:28:42;;;;;;;34.70;10.70;;;;;;;-3.79;100.00;102783.78;4995453;28;20030;-93
2023/02/07 06:31:07;;;;;;;40.00;14.90;;;;;;;-3.93;100.00;102786.63;4994952;28;20045;-93
2023/02/07 06:33:33;;;;;;;28.33;12.32;;;;;;;-3.83;100.00;102792.03;4995163;28;20472;-93
2023/02/07 06:35:58;;;;;;;42.13;12.75;;;;;;;-4.01;100.00;102779.56;4995212;28;20113;-94
2023/02/07 06:38:24;;;;;;;29.65;10.10;;;;;;;-3.92;100.00;102775.75;4994982;28;20034;-94
2023/02/07 06:40:49;;;;;;;29.10;10.10;;;;;;;-4.05;100.00;102750.81;4990459;28;20094;-94
2023/02/07 06:43:15;;;;;;;23.15;10.38;;;;;;;-4.14;100.00;102756.38;4989511;28;20121;-94
2023/02/07 06:45:41;;;;;;;31.95;11.93;;;;;;;-4.01;100.00;102793.03;4995060;28;20031;-95
2023/02/07 06:48:07;;;;;;;37.45;10.18;;;;;;;-4.07;100.00;102786.88;4995031;28;20026;-93
2023/02/07 06:50:33;;;;;;;29.15;9.40;;;;;;;-3.99;100.00;102790.56;4994785;28;20031;-95
2023/02/07 06:53:00;;;;;;;28.15;9.07;;;;;;;-4.01;100.00;102794.69;5011101;28;20065;-92
2023/02/07 06:55:37;;;;;;;27.58;9.65;;;;;;;-4.06;100.00;102803.75;4986966;28;20042;-93
2023/02/07 06:58:04;;;;;;;39.70;10.15;;;;;;;-4.01;100.00;102800.59;4977009;28;20077;-94
2023/02/07 07:00:29;;;;;;;37.35;10.50;;;;;;;-4.22;100.00;102774.50;4975706;28;20022;-95
2023/02/07 07:02:55;;;;;;;39.72;10.95;;;;;;;-4.15;100.00;102786.56;4975413;28;20037;-93
2023/02/07 07:05:20;;;;;;;32.42;10.98;;;;;;;-4.22;100.00;102780.41;4975320;28;20035;-94
2023/02/07 07:07:46;;;;;;;36.28;14.27;;;;;;;-3.90;100.00;102796.84;4975688;28;20454;-94
2023/02/07 07:10:13;;;;;;;31.85;13.32;;;;;;;-4.10;100.00;102778.41;4982473;28;20125;-94
2023/02/07 07:12:38;;;;;;;38.70;12.43;;;;;;;-4.06;100.00;102783.56;4997157;28;20044;-94
2023/02/07 07:15:04;;;;;;;28.13;11.05;;;;;;;-4.05;100.00;102796.22;4997160;28;20120;-93
2023/02/07 07:17:30;;;;;;;28.40;10.40;;;;;;;-4.01;100.00;102782.94;4992386;28;20026;-95
2023/02/07 07:19:55;;;;;;;38.13;11.40;;;;;;;-4.13;100.00;102782.44;4994697;28;20049;-95
2023/02/07 07:22:21;;;;;;;29.77;11.48;;;;;;;-4.21;100.00;102784.66;4995078;28;20029;-95
2023/02/07 07:24:46;;;;;;;42.35;11.45;;;;;;;-4.27;100.00;102801.19;4993911;28;20165;-93
2023/02/07 07:27:12;;;;;;;17.98;9.18;;;;;;;-4.24;100.00;102794.63;4993806;28;20038;-92
2023/02/07 07:29:38;;;;;;;36.80;11.07;;;;;;;-4.32;100.00;102791.78;4994144;28;20053;-94
2023/02/07 07:32:05;;;;;;;35.20;10.80;;;;;;;-4.20;100.00;102798.13;4988873;28;20033;-93
2023/02/07 07:34:30;;;;;;;38.95;11.30;;;;;;;-4.34;100.00;102783.28;4992714;28;20041;-94
2023/02/07 07:36:57;;;;;;;27.80;10.02;;;;;;;-4.17;100.00;102801.66;4994582;28;20030;-92
2023/02/07 07:39:24;;;;;;;23.80;10.35;;;;;;;-4.12;100.00;102794.25;4990024;28;20101;-92
2023/02/07 07:41:49;;;;;;;29.67;9.20;;;;;;;-4.38;100.00;102766.31;4974261;28;20031;-93
2023/02/07 07:44:15;;;;;;;29.88;10.90;;;;;;;-4.27;100.00;102788.56;4974049;28;20468;-92
2023/02/07 07:46:41;;;;;;;35.78;12.10;;;;;;;-4.24;100.00;102793.75;4984733;28;20061;-94
2023/02/07 07:49:07;;;;;;;34.55;10.63;;;;;;;-4.24;100.00;102788.69;4993105;28;20022;-92
2023/02/07 07:51:32;;;;;;;39.13;13.02;;;;;;;-4.31;100.00;102790.13;4993525;28;20077;-94
2023/02/07 07:53:58;;;;;;;32.70;12.63;;;;;;;-4.36;100.00;102779.84;4993457;28;20503;-93
2023/02/07 07:56:23;;;;;;;33.63;12.18;;;;;;;-4.28;100.00;102781.81;4993438;28;20030;-92
2023/02/07 07:58:49;;;;;;;26.48;11.75;;;;;;;-4.31;100.00;102773.34;4993205;28;20026;-93
2023/02/07 08:01:14;;;;;;;38.70;13.30;;;;;;;-4.01;100.00;102792.19;4992224;28;20049;-92
2023/02/07 08:03:40;;;;;;;35.00;13.65;;;;;;;-3.94;100.00;102801.72;4993168;28;20480;-94
2023/02/07 08:06:06;;;;;;;50.03;17.75;;;;;;;-3.80;100.00;102792.16;4993474;28;20077;-93
2023/02/07 08:08:31;;;;;;;56.35;17.23;;;;;;;-3.89;100.00;102795.19;4993225;28;20022;-93
2023/02/07 08:11:05;;;;;;;68.35;19.23;;;;;;;-3.83;100.00;102792.03;4986886;28;20035;-94
2023/02/07 08:13:30;;;;;;;74.45;15.32;;;;;;;-3.72;100.00;102785.75;4977608;28;20385;-93
2023/02/07 08:15:56;;;;;;;59.65;15.25;;;;;;;-3.67;100.00;102781.75;4979368;28;20031;-93
2023/02/07 08:18:21;;;;;;;41.78;14.13;;;;;;;-3.25;100.00;102790.09;4988390;28;20339;-94
2023/02/07 08:20:50;;;;;;;62.33;18.73;;;;;;;-3.21;100.00;102792.75;4974574;28;20516;-93
2023/02/07 08:23:16;;;;;;;51.22;15.70;;;;;;;-3.32;100.00;102774.66;4979400;28;20381;-93
2023/02/07 08:25:41;;;;;;;29.85;13.95;;;;;;;-3.24;100.00;102775.81;4992215;28;20022;-93
2023/02/07 08:28:07;;;;;;;39.70;14.15;;;;;;;-3.07;100.00;102800.03;4990858;28;20045;-93
2023/02/07 08:30:33;;;;;;;38.70;13.98;;;;;;;-2.25;100.00;102791.06;4987142;28;20019;-93
2023/02/07 08:32:59;;;;;;;30.17;12.75;;;;;;;-1.71;100.00;102775.06;4991096;28;20034;-93
2023/02/07 08:35:25;;;;;;;39.55;14.35;;;;;;;-0.74;100.00;102788.00;4979754;28;20493;-92
2023/02/07 08:37:51;;;;;;;35.00;14.25;;;;;;;-1.01;100.00;102786.44;4975961;28;20025;-93
2023/02/07 08:40:18;;;;;;;47.97;14.52;;;;;;;-1.30;100.00;102778.84;4972681;28;20019;-93
2023/02/07 08:42:43;;;;;;;37.20;14.15;;;;;;;-1.28;100.00;102780.59;4977597;28;20015;-93
2023/02/07 08:45:09;;;;;;;33.22;12.25;;;;;;;-1.26;100.00;102777.28;4972640;28;20049;-94
2023/02/07 08:47:35;;;;;;;32.75;12.98;;;;;;;-1.45;100.00;102783.47;4972517;28;20118;-93
2023/02/07 08:50:00;;;;;;;36.10;11.07;;;;;;;-1.49;100.00;102801.91;4976016;28;20088;-94
2023/02/07 08:52:26;;;;;;;35.65;11.95;;;;;;;-1.42;100.00;102795.38;4990074;28;20460;-93
2023/02/07 08:54:52;;;;;;;43.85;13.32;;;;;;;-1.41;100.00;102797.09;4991183;28;20029;-93
2023/02/07 08:57:21;;;;;;;27.50;11.02;;;;;;;-1.30;100.00;102796.59;4980545;28;20049;-93
2023/02/07 08:59:48;;;;;;;39.92;14.73;;;;;;;-0.96;100.00;102807.69;4973171;28;20592;-93
2023/02/07 09:02:13;;;;;;;37.92;13.32;;;;;;;-1.05;100.00;102804.03;4990282;28;20053;-93
2023/02/07 09:04:41;;;;;;;40.95;14.05;;;;;;;-0.96;100.00;102797.56;4991015;28;20070;-93
2023/02/07 09:07:07;;;;;;;39.00;15.65;;;;;;;-0.89;100.00;102806.19;5001027;28;20067;-93
2023/02/07 09:09:32;;;;;;;41.63;18.00;;;;;;;-0.91;100.00;102798.53;4984407;28;20034;-93
2023/02/07 09:11:58;;;;;;;48.10;17.95;;;;;;;-0.71;100.00;102803.31;4981147;28;20027;-92
2023/02/07 09:14:24;;;;;;;43.05;20.17;;;;;;;-0.14;100.00;102814.97;4990029;28;20026;-92
2023/02/07 09:16:50;;;;;;;42.63;19.92;;;;;;;0.53;100.00;102796.22;4971490;28;20159;-93
2023/02/07 09:19:18;;;;;;;51.80;21.52;;;;;;;1.52;100.00;102806.69;4971877;28;20122;-93
2023/02/07 09:21:43;;;;;;;51.40;21.10;;;;;;;1.52;100.00;102799.03;4971646;28;20433;-94
2023/02/07 09:24:09;;;;;;;64.50;21.25;;;;;;;1.76;100.00;102790.13;4971797;28;20145;-93
2023/02/07 09:26:35;;;;;;;65.40;21.13;;;;;;;3.75;100.00;102786.72;4982811;28;20022;-92
2023/02/07 09:29:01;;;;;;;55.92;19.48;;;;;;;5.63;87.34;102773.09;4990930;28;20472;-94
2023/02/07 09:31:27;;;;;;;49.83;16.15;;;;;;;6.31;81.20;102773.94;4991189;28;20023;-93
2023/02/07 09:33:53;;;;;;;32.22;12.40;;;;;;;7.12;71.34;102763.38;4982569;28;20085;-94
2023/02/07 09:36:24;;;;;;;24.83;11.02;;;;;;;5.74;75.08;102790.19;4978623;28;20528;-94
2023/02/07 09:38:50;;;;;;;21.55;9.13;;;;;;;4.43;85.06;102783.78;4972907;28;20022;-93
2023/02/07 09:41:25;;;;;;;22.85;9.65;;;;;;;6.67;77.94;102780.69;4971434;28;20030;-94
2023/02/07 09:44:24;;;;;;;19.85;7.95;;;;;;;10.19;55.87;102769.16;4978657;28;20018;-93
2023/02/07 09:47:25;;;;;;;21.58;7.57;;;;;;;12.34;51.60;102764.31;4989618;28;20026;-93
2023/02/07 09:49:56;;;;;;;22.10;7.63;;;;;;;13.40;51.81;102768.94;4914596;29;20024;-94
2023/02/07 09:52:29;;;;;;;34.03;8.88;;;;;;;11.82;52.47;102774.22;4975662;28;20030;-94
2023/02/07 09:54:59;;;;;;;20.75;9.27;;;;;;;10.95;55.42;102777.16;4984118;28;20063;-93
2023/02/07 09:57:25;;;;;;;28.08;11.43;;;;;;;12.28;50.61;102775.66;4971993;28;20023;-93
2023/02/07 09:59:56;;;;;;;25.17;12.98;;;;;;;13.93;44.32;102775.88;4976063;28;20026;-93
2023/02/07 10:02:44;;;;;;;24.67;11.50;;;;;;;12.40;46.13;102777.06;4975334;28;20022;-94
2023/02/07 10:05:21;;;;;;;18.95;10.55;;;;;;;14.92;41.19;102780.09;4990099;28;20058;-94
2023/02/07 10:07:48;;;;;;;18.98;10.73;;;;;;;14.87;41.09;102774.19;4983690;28;20090;-94
2023/02/07 10:10:22;;;;;;;21.10;11.55;;;;;;;14.72;42.27;102770.41;4975399;28;20023;-95
2023/02/07 10:12:51;;;;;;;23.73;13.43;;;;;;;18.71;35.13;102773.94;4976573;28;20034;-94
2023/02/07 10:15:52;;;;;;;28.60;11.85;;;;;;;17.96;34.99;102771.75;4989925;28;20116;-94
2023/02/07 10:18:29;;;;;;;26.10;12.68;;;;;;;20.27;32.55;102775.38;4908120;29;20530;-94
2023/02/07 10:20:57;;;;;;;21.85;11.95;;;;;;;16.67;36.52;102775.34;4972604;28;20047;-95
2023/02/07 10:23:52;;;;;;;19.40;11.48;;;;;;;16.68;37.61;102771.84;4980515;28;20023;-94
2023/02/07 10:26:24;;;;;;;25.20;13.63;;;;;;;16.21;38.25;102789.59;4981340;28;20034;-95
2023/02/07 10:28:56;;;;;;;21.63;11.82;;;;;;;16.74;36.92;102788.09;4975070;28;20027;-95
2023/02/07 10:31:24;;;;;;;21.25;12.18;;;;;;;18.56;33.62;102778.22;4978200;28;20457;-95
2023/02/07 10:33:59;;;;;;;25.02;13.98;;;;;;;17.02;36.14;102775.50;4981092;28;20113;-94
2023/02/07 10:36:28;;;;;;;20.48;11.75;;;;;;;17.32;35.64;102780.16;4974701;28;20030;-94
2023/02/07 10:39:11;;;;;;;20.70;11.38;;;;;;;19.69;32.26;102780.66;4974767;28;20031;-94
2023/02/07 10:41:40;;;;;;;25.13;12.48;;;;;;;21.19;30.39;102776.63;4989346;28;20117;-95
2023/02/07 10:44:10;;;;;;;20.48;11.70;;;;;;;22.10;29.38;102789.78;4994112;28;20460;-96
2023/02/07 10:46:38;;;;;;;18.23;10.18;;;;;;;23.49;27.79;102781.56;4984484;28;20031;-95
2023/02/07 10:49:03;;;;;;;21.25;10.35;;;;;;;23.60;27.03;102774.63;4974694;28;20022;-95
2023/02/07 10:51:34;;;;;;;23.45;10.90;;;;;;;22.15;28.95;102771.91;4988791;28;20026;-95
2023/02/07 10:54:12;;;;;;;19.02;10.02;;;;;;;22.53;28.14;102763.16;4992475;28;20436;-95
2023/02/07 10:56:46;;;;;;;21.55;10.80;;;;;;;22.76;29.13;102802.75;4983235;28;20026;-95
2023/02/07 10:59:44;;;;;;;18.35;11.68;;;;;;;23.65;27.82;102796.22;4974168;28;20045;-95
2023/02/07 11:02:31;;;;;;;23.05;12.45;;;;;;;24.80;26.38;102786.41;4989766;28;20180;-96
2023/02/07 11:05:04;;;;;;;22.80;12.13;;;;;;;24.08;27.38;102808.78;4975592;28;20105;-94
2023/02/07 11:07:30;;;;;;;27.65;12.20;;;;;;;23.91;27.56;102799.53;4978226;28;20029;-95
2023/02/07 11:10:22;;;;;;;22.38;11.38;;;;;;;24.33;27.32;102803.25;4972947;28;20027;-94
2023/02/07 11:12:52;;;;;;;23.00;9.13;;;;;;;24.42;28.01;102798.22;4983833;28;20113;-95
2023/02/07 11:15:24;;;;;;;24.55;9.25;;;;;;;24.67;27.01;102795.34;4976721;28;20031;-94
2023/02/07 11:17:54;;;;;;;24.75;9.38;;;;;;;23.20;28.82;102790.81;4994603;28;20049;-94